sensor_id;sensor_type;location;lat;lon;timestamp;temperature;humidity
15003;DHT22;7597;53.590;10.020;2022-08-25T00:01:11;20.00;1.00
15003;DHT22;7597;53.590;10.020;2022-08-25T00:03:37;19.90;1.00
15003;DHT22;7597;53.590;10.020;2022-08-25T00:06:04;19.90;1.00
15003;DHT22;7597;53.590;10.020;2022-08-25T00:08:31;19.80;1.00
15003;DHT22;7597;53.590;10.020;2022-08-25T00:10:57;19.80;1.00
15003;DHT22;7597;53.590;10.020;2022-08-25T00:13:24;19.80;1.00
15003;DHT22;7597;53.590;10.020;2022-08-25T00:15:50;19.70;1.00
15003;DHT22;7597;53.590;10.020;2022-08-25T00:18:17;19.70;1.00
15003;DHT22;7597;53.590;10.020;2022-08-25T00:20:44;19.70;1.00
15003;DHT22;7597;53.590;10.020;2022-08-25T00:23:10;19.70;1.00
15003;DHT22;7597;53.590;10.020;2022-08-25T00:25:37;19.60;1.00
15003;DHT22;7597;53.590;10.020;2022-08-25T00:28:03;19.60;1.00
15003;DHT22;7597;53.590;10.020;2022-08-25T00:30:30;19.50;1.00
15003;DHT22;7597;53.590;10.020;2022-08-25T00:32:57;19.60;1.00
15003;DHT22;7597;53.590;10.020;2022-08-25T00:35:24;19.50;1.00
15003;DHT22;7597;53.590;10.020;2022-08-25T00:37:50;19.50;1.00
15003;DHT22;7597;53.590;10.020;2022-08-25T00:40:17;19.50;1.00
15003;DHT22;7597;53.590;10.020;2022-08-25T00:42:43;19.40;1.00
15003;DHT22;7597;53.590;10.020;2022-08-25T00:45:10;19.40;1.00
15003;DHT22;7597;53.590;10.020;2022-08-25T00:47:37;19.40;1.00
15003;DHT22;7597;53.590;10.020;2022-08-25T00:50:04;19.40;1.00
15003;DHT22;7597;53.590;10.020;2022-08-25T00:52:33;19.30;1.00
15003;DHT22;7597;53.590;10.020;2022-08-25T00:55:00;19.30;1.00
15003;DHT22;7597;53.590;10.020;2022-08-25T00:57:27;19.30;1.00
15003;DHT22;7597;53.590;10.020;2022-08-25T00:59:52;19.30;1.00
15003;DHT22;7597;53.590;10.020;2022-08-25T01:02:19;19.20;1.00
15003;DHT22;7597;53.590;10.020;2022-08-25T01:04:46;19.20;1.00
15003;DHT22;7597;53.590;10.020;2022-08-25T01:07:13;19.20;1.00
15003;DHT22;7597;53.590;10.020;2022-08-25T01:09:39;19.20;1.00
15003;DHT22;7597;53.590;10.020;2022-08-25T01:12:06;19.10;1.00
15003;DHT22;7597;53.590;10.020;2022-08-25T01:14:32;19.10;1.00
15003;DHT22;7597;53.590;10.020;2022-08-25T01:16:59;19.00;1.00
15003;DHT22;7597;53.590;10.020;2022-08-25T01:19:26;19.00;1.00
15003;DHT22;7597;53.590;10.020;2022-08-25T01:21:53;19.00;1.00
15003;DHT22;7597;53.590;10.020;2022-08-25T01:24:27;18.70;1.00
15003;DHT22;7597;53.590;10.020;2022-08-25T01:26:52;18.90;1.00
15003;DHT22;7597;53.590;10.020;2022-08-25T01:29:19;18.90;1.00
15003;DHT22;7597;53.590;10.020;2022-08-25T01:31:48;18.90;1.00
15003;DHT22;7597;53.590;10.020;2022-08-25T01:34:14;18.80;1.00
15003;DHT22;7597;53.590;10.020;2022-08-25T01:36:41;18.80;1.00
15003;DHT22;7597;53.590;10.020;2022-08-25T01:39:07;18.80;1.00
15003;DHT22;7597;53.590;10.020;2022-08-25T01:42:08;18.80;1.00
15003;DHT22;7597;53.590;10.020;2022-08-25T01:44:32;18.80;1.00
15003;DHT22;7597;53.590;10.020;2022-08-25T01:46:57;18.80;1.00
15003;DHT22;7597;53.590;10.020;2022-08-25T01:49:24;18.80;1.00
15003;DHT22;7597;53.590;10.020;2022-08-25T01:52:08;18.70;1.00
15003;DHT22;7597;53.590;10.020;2022-08-25T01:54:32;18.70;1.00
15003;DHT22;7597;53.590;10.020;2022-08-25T01:56:59;18.70;1.00
15003;DHT22;7597;53.590;10.020;2022-08-25T01:59:26;18.60;1.00
15003;DHT22;7597;53.590;10.020;2022-08-25T02:01:52;18.60;1.00
15003;DHT22;7597;53.590;10.020;2022-08-25T02:04:19;18.60;1.00
15003;DHT22;7597;53.590;10.020;2022-08-25T02:06:45;18.60;1.00
15003;DHT22;7597;53.590;10.020;2022-08-25T02:09:14;18.50;1.00
15003;DHT22;7597;53.590;10.020;2022-08-25T02:11:39;18.60;1.00
15003;DHT22;7597;53.590;10.020;2022-08-25T02:14:05;18.50;1.00
15003;DHT22;7597;53.590;10.020;2022-08-25T02:16:33;18.50;1.00
15003;DHT22;7597;53.590;10.020;2022-08-25T02:18:59;18.50;1.00
15003;DHT22;7597;53.590;10.020;2022-08-25T02:21:26;18.40;1.00
15003;DHT22;7597;53.590;10.020;2022-08-25T02:23:52;18.40;1.00
15003;DHT22;7597;53.590;10.020;2022-08-25T02:26:19;18.40;1.00
15003;DHT22;7597;53.590;10.020;2022-08-25T02:28:46;18.40;1.00
15003;DHT22;7597;53.590;10.020;2022-08-25T02:31:12;18.40;1.00
15003;DHT22;7597;53.590;10.020;2022-08-25T02:33:39;18.30;1.00
15003;DHT22;7597;53.590;10.020;2022-08-25T02:36:14;18.30;1.00
15003;DHT22;7597;53.590;10.020;2022-08-25T02:38:42;18.30;1.00
15003;DHT22;7597;53.590;10.020;2022-08-25T02:41:20;18.30;1.00
15003;DHT22;7597;53.590;10.020;2022-08-25T02:43:45;18.20;1.00
15003;DHT22;7597;53.590;10.020;2022-08-25T02:46:12;18.20;1.00
15003;DHT22;7597;53.590;10.020;2022-08-25T02:48:38;18.20;1.00
15003;DHT22;7597;53.590;10.020;2022-08-25T02:51:06;18.20;1.00
15003;DHT22;7597;53.590;10.020;2022-08-25T02:53:32;18.10;1.00
15003;DHT22;7597;53.590;10.020;2022-08-25T02:55:58;18.10;1.00
15003;DHT22;7597;53.590;10.020;2022-08-25T02:58:25;18.10;1.00
15003;DHT22;7597;53.590;10.020;2022-08-25T03:00:52;18.10;1.00
15003;DHT22;7597;53.590;10.020;2022-08-25T03:03:18;18.10;1.00
15003;DHT22;7597;53.590;10.020;2022-08-25T03:05:45;18.10;1.00
15003;DHT22;7597;53.590;10.020;2022-08-25T03:08:11;18.10;1.00
15003;DHT22;7597;53.590;10.020;2022-08-25T03:10:38;18.10;1.00
15003;DHT22;7597;53.590;10.020;2022-08-25T03:13:07;18.10;1.00
15003;DHT22;7597;53.590;10.020;2022-08-25T03:15:33;18.10;1.00
15003;DHT22;7597;53.590;10.020;2022-08-25T03:18:00;18.10;1.00
15003;DHT22;7597;53.590;10.020;2022-08-25T03:20:27;18.00;1.00
15003;DHT22;7597;53.590;10.020;2022-08-25T03:22:54;18.00;1.00
15003;DHT22;7597;53.590;10.020;2022-08-25T03:25:20;17.90;1.00
15003;DHT22;7597;53.590;10.020;2022-08-25T03:27:52;17.90;1.00
15003;DHT22;7597;53.590;10.020;2022-08-25T03:30:19;17.90;1.00
15003;DHT22;7597;53.590;10.020;2022-08-25T03:32:46;17.90;1.00
15003;DHT22;7597;53.590;10.020;2022-08-25T03:35:13;17.90;1.00
15003;DHT22;7597;53.590;10.020;2022-08-25T03:37:41;17.80;1.00
15003;DHT22;7597;53.590;10.020;2022-08-25T03:40:09;17.80;1.00
15003;DHT22;7597;53.590;10.020;2022-08-25T03:42:35;17.80;1.00
15003;DHT22;7597;53.590;10.020;2022-08-25T03:45:03;17.80;1.00
15003;DHT22;7597;53.590;10.020;2022-08-25T03:47:29;17.80;1.00
15003;DHT22;7597;53.590;10.020;2022-08-25T03:49:56;17.80;1.00
15003;DHT22;7597;53.590;10.020;2022-08-25T03:52:23;17.80;1.00
15003;DHT22;7597;53.590;10.020;2022-08-25T03:54:50;17.70;1.00
15003;DHT22;7597;53.590;10.020;2022-08-25T03:57:16;17.70;1.00
15003;DHT22;7597;53.590;10.020;2022-08-25T03:59:43;17.70;1.00
15003;DHT22;7597;53.590;10.020;2022-08-25T04:02:10;17.80;1.00
15003;DHT22;7597;53.590;10.020;2022-08-25T04:04:36;17.80;1.00
15003;DHT22;7597;53.590;10.020;2022-08-25T04:07:03;17.80;1.00
15003;DHT22;7597;53.590;10.020;2022-08-25T04:09:30;17.70;1.00
15003;DHT22;7597;53.590;10.020;2022-08-25T04:11:57;17.70;1.00
15003;DHT22;7597;53.590;10.020;2022-08-25T04:14:23;17.70;1.00
15003;DHT22;7597;53.590;10.020;2022-08-25T04:16:50;17.70;1.00
15003;DHT22;7597;53.590;10.020;2022-08-25T04:19:17;17.60;1.00
15003;DHT22;7597;53.590;10.020;2022-08-25T04:21:43;17.60;1.00
15003;DHT22;7597;53.590;10.020;2022-08-25T04:24:10;17.60;1.00
15003;DHT22;7597;53.590;10.020;2022-08-25T04:26:39;17.60;1.00
15003;DHT22;7597;53.590;10.020;2022-08-25T04:29:04;17.60;1.00
15003;DHT22;7597;53.590;10.020;2022-08-25T04:31:31;17.60;1.00
15003;DHT22;7597;53.590;10.020;2022-08-25T04:33:57;17.60;1.00
15003;DHT22;7597;53.590;10.020;2022-08-25T04:36:24;17.60;1.00
15003;DHT22;7597;53.590;10.020;2022-08-25T04:38:50;17.70;1.00
15003;DHT22;7597;53.590;10.020;2022-08-25T04:41:18;17.70;1.00
15003;DHT22;7597;53.590;10.020;2022-08-25T04:43:44;17.70;1.00
15003;DHT22;7597;53.590;10.020;2022-08-25T04:46:16;17.70;1.00
15003;DHT22;7597;53.590;10.020;2022-08-25T04:48:42;17.70;1.00
15003;DHT22;7597;53.590;10.020;2022-08-25T04:51:09;17.70;1.00
15003;DHT22;7597;53.590;10.020;2022-08-25T04:53:35;17.80;1.00
15003;DHT22;7597;53.590;10.020;2022-08-25T04:56:04;17.70;1.00
15003;DHT22;7597;53.590;10.020;2022-08-25T04:58:29;17.90;1.00
15003;DHT22;7597;53.590;10.020;2022-08-25T05:01:04;17.90;1.00
15003;DHT22;7597;53.590;10.020;2022-08-25T05:03:30;17.90;1.00
15003;DHT22;7597;53.590;10.020;2022-08-25T05:05:57;17.90;1.00
15003;DHT22;7597;53.590;10.020;2022-08-25T05:08:23;18.00;1.00
15003;DHT22;7597;53.590;10.020;2022-08-25T05:10:50;18.00;1.00
15003;DHT22;7597;53.590;10.020;2022-08-25T05:13:20;18.10;1.00
15003;DHT22;7597;53.590;10.020;2022-08-25T05:15:52;18.10;1.00
15003;DHT22;7597;53.590;10.020;2022-08-25T05:18:19;18.20;1.00
15003;DHT22;7597;53.590;10.020;2022-08-25T05:20:46;18.30;1.00
15003;DHT22;7597;53.590;10.020;2022-08-25T05:23:12;18.30;1.00
15003;DHT22;7597;53.590;10.020;2022-08-25T05:25:39;18.40;1.00
15003;DHT22;7597;53.590;10.020;2022-08-25T05:28:06;18.40;1.00
15003;DHT22;7597;53.590;10.020;2022-08-25T05:30:32;18.40;1.00
15003;DHT22;7597;53.590;10.020;2022-08-25T05:33:00;18.50;1.00
15003;DHT22;7597;53.590;10.020;2022-08-25T05:35:26;18.50;1.00
15003;DHT22;7597;53.590;10.020;2022-08-25T05:37:53;18.60;1.00
15003;DHT22;7597;53.590;10.020;2022-08-25T05:40:20;18.60;1.00
15003;DHT22;7597;53.590;10.020;2022-08-25T05:42:46;18.60;1.00
15003;DHT22;7597;53.590;10.020;2022-08-25T05:45:13;18.60;1.00
15003;DHT22;7597;53.590;10.020;2022-08-25T05:47:40;18.60;1.00
15003;DHT22;7597;53.590;10.020;2022-08-25T05:50:07;18.50;1.00
15003;DHT22;7597;53.590;10.020;2022-08-25T05:52:34;18.60;1.00
15003;DHT22;7597;53.590;10.020;2022-08-25T05:55:01;18.60;1.00
15003;DHT22;7597;53.590;10.020;2022-08-25T05:57:27;18.70;1.00
15003;DHT22;7597;53.590;10.020;2022-08-25T05:59:54;18.70;1.00
15003;DHT22;7597;53.590;10.020;2022-08-25T06:02:21;18.70;1.00
15003;DHT22;7597;53.590;10.020;2022-08-25T06:04:53;18.70;1.00
15003;DHT22;7597;53.590;10.020;2022-08-25T06:07:20;18.50;1.00
15003;DHT22;7597;53.590;10.020;2022-08-25T06:09:46;18.50;1.00
15003;DHT22;7597;53.590;10.020;2022-08-25T06:12:13;18.40;1.00
15003;DHT22;7597;53.590;10.020;2022-08-25T06:14:40;18.40;1.00
15003;DHT22;7597;53.590;10.020;2022-08-25T06:17:06;18.30;1.00
15003;DHT22;7597;53.590;10.020;2022-08-25T06:19:33;18.20;1.00
15003;DHT22;7597;53.590;10.020;2022-08-25T06:22:00;18.30;1.00
15003;DHT22;7597;53.590;10.020;2022-08-25T06:24:27;18.30;1.00
15003;DHT22;7597;53.590;10.020;2022-08-25T06:26:55;18.40;1.00
15003;DHT22;7597;53.590;10.020;2022-08-25T06:29:21;18.40;1.00
15003;DHT22;7597;53.590;10.020;2022-08-25T06:31:48;18.50;1.00
15003;DHT22;7597;53.590;10.020;2022-08-25T06:34:15;18.70;1.00
15003;DHT22;7597;53.590;10.020;2022-08-25T06:36:41;18.80;1.00
15003;DHT22;7597;53.590;10.020;2022-08-25T06:39:08;18.90;1.00
15003;DHT22;7597;53.590;10.020;2022-08-25T06:41:34;19.00;1.00
15003;DHT22;7597;53.590;10.020;2022-08-25T06:44:01;19.00;1.00
15003;DHT22;7597;53.590;10.020;2022-08-25T06:46:28;18.90;1.00
15003;DHT22;7597;53.590;10.020;2022-08-25T06:48:54;18.90;1.00
15003;DHT22;7597;53.590;10.020;2022-08-25T06:51:21;18.80;1.00
15003;DHT22;7597;53.590;10.020;2022-08-25T06:53:48;18.80;1.00
15003;DHT22;7597;53.590;10.020;2022-08-25T06:56:15;18.90;1.00
15003;DHT22;7597;53.590;10.020;2022-08-25T06:58:41;18.90;1.00
15003;DHT22;7597;53.590;10.020;2022-08-25T07:01:10;19.10;1.00
15003;DHT22;7597;53.590;10.020;2022-08-25T07:03:36;19.00;1.00
15003;DHT22;7597;53.590;10.020;2022-08-25T07:06:03;19.10;1.00
15003;DHT22;7597;53.590;10.020;2022-08-25T07:08:29;19.10;1.00
15003;DHT22;7597;53.590;10.020;2022-08-25T07:10:56;19.10;1.00
15003;DHT22;7597;53.590;10.020;2022-08-25T07:13:23;19.10;1.00
15003;DHT22;7597;53.590;10.020;2022-08-25T07:15:52;19.10;1.00
15003;DHT22;7597;53.590;10.020;2022-08-25T07:18:19;19.00;1.00
15003;DHT22;7597;53.590;10.020;2022-08-25T07:20:46;19.20;1.00
15003;DHT22;7597;53.590;10.020;2022-08-25T07:23:12;19.30;1.00
15003;DHT22;7597;53.590;10.020;2022-08-25T07:25:39;19.50;1.00
15003;DHT22;7597;53.590;10.020;2022-08-25T07:28:06;19.60;1.00
15003;DHT22;7597;53.590;10.020;2022-08-25T07:30:32;19.90;1.00
15003;DHT22;7597;53.590;10.020;2022-08-25T07:33:00;20.00;1.00
15003;DHT22;7597;53.590;10.020;2022-08-25T07:35:26;19.90;1.00
15003;DHT22;7597;53.590;10.020;2022-08-25T07:37:54;19.80;1.00
15003;DHT22;7597;53.590;10.020;2022-08-25T07:40:22;19.80;1.00
15003;DHT22;7597;53.590;10.020;2022-08-25T07:42:49;20.10;1.00
15003;DHT22;7597;53.590;10.020;2022-08-25T07:45:15;20.20;1.00
15003;DHT22;7597;53.590;10.020;2022-08-25T07:47:41;20.40;1.00
15003;DHT22;7597;53.590;10.020;2022-08-25T07:50:09;20.60;1.00
15003;DHT22;7597;53.590;10.020;2022-08-25T07:52:35;20.80;1.00
15003;DHT22;7597;53.590;10.020;2022-08-25T07:55:02;21.00;1.00
15003;DHT22;7597;53.590;10.020;2022-08-25T07:57:28;21.20;1.00
15003;DHT22;7597;53.590;10.020;2022-08-25T07:59:55;21.30;1.00
15003;DHT22;7597;53.590;10.020;2022-08-25T08:02:22;21.40;1.00
15003;DHT22;7597;53.590;10.020;2022-08-25T08:04:49;21.40;1.00
15003;DHT22;7597;53.590;10.020;2022-08-25T08:07:19;21.10;1.00
15003;DHT22;7597;53.590;10.020;2022-08-25T08:09:45;20.70;1.00
15003;DHT22;7597;53.590;10.020;2022-08-25T08:12:11;20.60;1.00
15003;DHT22;7597;53.590;10.020;2022-08-25T08:14:38;20.50;1.00
15003;DHT22;7597;53.590;10.020;2022-08-25T08:17:06;20.70;1.00
15003;DHT22;7597;53.590;10.020;2022-08-25T08:19:32;20.90;1.00
15003;DHT22;7597;53.590;10.020;2022-08-25T08:21:59;21.20;1.00
15003;DHT22;7597;53.590;10.020;2022-08-25T08:24:27;21.30;1.00
15003;DHT22;7597;53.590;10.020;2022-08-25T08:26:52;21.40;1.00
15003;DHT22;7597;53.590;10.020;2022-08-25T08:29:19;21.20;1.00
15003;DHT22;7597;53.590;10.020;2022-08-25T08:31:45;21.10;1.00
15003;DHT22;7597;53.590;10.020;2022-08-25T08:34:12;21.00;1.00
15003;DHT22;7597;53.590;10.020;2022-08-25T08:36:39;21.00;1.00
15003;DHT22;7597;53.590;10.020;2022-08-25T08:39:06;21.10;1.00
15003;DHT22;7597;53.590;10.020;2022-08-25T08:41:40;21.10;1.00
15003;DHT22;7597;53.590;10.020;2022-08-25T08:44:35;21.30;1.00
15003;DHT22;7597;53.590;10.020;2022-08-25T08:48:23;21.30;1.00
15003;DHT22;7597;53.590;10.020;2022-08-25T08:50:05;21.40;1.00
15003;DHT22;7597;53.590;10.020;2022-08-25T08:52:35;21.50;1.00
15003;DHT22;7597;53.590;10.020;2022-08-25T08:54:59;21.40;1.00
15003;DHT22;7597;53.590;10.020;2022-08-25T08:57:25;21.30;1.00
15003;DHT22;7597;53.590;10.020;2022-08-25T08:59:59;21.20;1.00
15003;DHT22;7597;53.590;10.020;2022-08-25T09:02:39;21.10;1.00
15003;DHT22;7597;53.590;10.020;2022-08-25T09:05:06;21.00;1.00
15003;DHT22;7597;53.590;10.020;2022-08-25T09:07:34;21.10;1.00
15003;DHT22;7597;53.590;10.020;2022-08-25T09:09:58;21.10;1.00
15003;DHT22;7597;53.590;10.020;2022-08-25T09:12:59;21.40;1.00
15003;DHT22;7597;53.590;10.020;2022-08-25T09:15:33;21.80;1.00
15003;DHT22;7597;53.590;10.020;2022-08-25T09:18:04;22.20;1.00
15003;DHT22;7597;53.590;10.020;2022-08-25T09:20:44;22.10;1.00
15003;DHT22;7597;53.590;10.020;2022-08-25T09:23:17;22.30;1.00
15003;DHT22;7597;53.590;10.020;2022-08-25T09:25:43;22.20;1.00
15003;DHT22;7597;53.590;10.020;2022-08-25T09:28:08;22.20;1.00
15003;DHT22;7597;53.590;10.020;2022-08-25T09:30:44;22.80;1.00
15003;DHT22;7597;53.590;10.020;2022-08-25T09:33:09;22.80;1.00
15003;DHT22;7597;53.590;10.020;2022-08-25T09:35:39;23.00;1.00
15003;DHT22;7597;53.590;10.020;2022-08-25T09:38:08;23.10;1.00
15003;DHT22;7597;53.590;10.020;2022-08-25T09:40:36;23.70;1.00
15003;DHT22;7597;53.590;10.020;2022-08-25T09:43:01;24.80;1.00
15003;DHT22;7597;53.590;10.020;2022-08-25T09:45:46;27.50;1.00
15003;DHT22;7597;53.590;10.020;2022-08-25T09:48:52;29.20;1.00
15003;DHT22;7597;53.590;10.020;2022-08-25T09:51:01;29.10;1.00
15003;DHT22;7597;53.590;10.020;2022-08-25T09:53:28;30.70;1.00
15003;DHT22;7597;53.590;10.020;2022-08-25T09:55:56;32.70;1.00
15003;DHT22;7597;53.590;10.020;2022-08-25T09:58:22;33.20;1.00
15003;DHT22;7597;53.590;10.020;2022-08-25T10:01:15;34.10;1.00
15003;DHT22;7597;53.590;10.020;2022-08-25T10:03:55;33.00;1.00
15003;DHT22;7597;53.590;10.020;2022-08-25T10:06:20;32.90;1.00
15003;DHT22;7597;53.590;10.020;2022-08-25T10:09:03;33.90;1.00
15003;DHT22;7597;53.590;10.020;2022-08-25T10:11:32;34.60;1.00
15003;DHT22;7597;53.590;10.020;2022-08-25T10:16:41;37.20;1.00
15003;DHT22;7597;53.590;10.020;2022-08-25T10:19:22;38.00;1.00
15003;DHT22;7597;53.590;10.020;2022-08-25T10:24:20;38.50;1.00
15003;DHT22;7597;53.590;10.020;2022-08-25T10:27:00;38.70;1.00
15003;DHT22;7597;53.590;10.020;2022-08-25T10:29:49;39.70;1.00
15003;DHT22;7597;53.590;10.020;2022-08-25T10:32:23;40.20;1.00
15003;DHT22;7597;53.590;10.020;2022-08-25T10:34:48;40.60;1.00
15003;DHT22;7597;53.590;10.020;2022-08-25T10:37:27;40.70;1.00
15003;DHT22;7597;53.590;10.020;2022-08-25T10:40:02;41.10;1.00
15003;DHT22;7597;53.590;10.020;2022-08-25T10:42:31;39.10;1.00
15003;DHT22;7597;53.590;10.020;2022-08-25T10:45:00;38.20;1.00
15003;DHT22;7597;53.590;10.020;2022-08-25T10:50:37;35.40;1.00
15003;DHT22;7597;53.590;10.020;2022-08-25T10:53:22;35.10;1.00
15003;DHT22;7597;53.590;10.020;2022-08-25T10:56:04;35.10;1.00
15003;DHT22;7597;53.590;10.020;2022-08-25T10:58:51;35.50;1.00
15003;DHT22;7597;53.590;10.020;2022-08-25T11:01:18;35.50;1.00
15003;DHT22;7597;53.590;10.020;2022-08-25T11:04:02;35.00;1.00
15003;DHT22;7597;53.590;10.020;2022-08-25T11:06:38;33.90;1.00
15003;DHT22;7597;53.590;10.020;2022-08-25T11:09:09;34.60;1.00
15003;DHT22;7597;53.590;10.020;2022-08-25T11:11:53;34.50;1.00
15003;DHT22;7597;53.590;10.020;2022-08-25T11:14:20;32.90;1.00
15003;DHT22;7597;53.590;10.020;2022-08-25T11:16:50;33.20;1.00
15003;DHT22;7597;53.590;10.020;2022-08-25T11:19:21;32.60;1.00
15003;DHT22;7597;53.590;10.020;2022-08-25T11:21:58;32.60;1.00
15003;DHT22;7597;53.590;10.020;2022-08-25T11:24:46;33.90;1.00
15003;DHT22;7597;53.590;10.020;2022-08-25T11:33:02;32.60;1.00
15003;DHT22;7597;53.590;10.020;2022-08-25T11:35:36;33.20;1.00
15003;DHT22;7597;53.590;10.020;2022-08-25T11:38:26;33.30;1.00
15003;DHT22;7597;53.590;10.020;2022-08-25T11:40:53;33.60;1.00
15003;DHT22;7597;53.590;10.020;2022-08-25T11:43:25;32.90;1.00
15003;DHT22;7597;53.590;10.020;2022-08-25T11:46:08;33.00;1.00
15003;DHT22;7597;53.590;10.020;2022-08-25T11:48:38;32.80;1.00
15003;DHT22;7597;53.590;10.020;2022-08-25T11:51:25;32.00;1.00
15003;DHT22;7597;53.590;10.020;2022-08-25T11:53:41;32.00;1.00
15003;DHT22;7597;53.590;10.020;2022-08-25T11:58:52;31.10;1.00
15003;DHT22;7597;53.590;10.020;2022-08-25T12:12:54;32.20;1.00
15003;DHT22;7597;53.590;10.020;2022-08-25T12:15:19;31.60;1.00
15003;DHT22;7597;53.590;10.020;2022-08-25T12:17:40;30.40;1.00
15003;DHT22;7597;53.590;10.020;2022-08-25T12:20:07;29.80;1.00
15003;DHT22;7597;53.590;10.020;2022-08-25T12:22:40;30.10;1.00
15003;DHT22;7597;53.590;10.020;2022-08-25T12:25:12;29.90;1.00
15003;DHT22;7597;53.590;10.020;2022-08-25T12:27:40;30.50;1.00
15003;DHT22;7597;53.590;10.020;2022-08-25T12:32:49;30.00;1.00
15003;DHT22;7597;53.590;10.020;2022-08-25T12:35:16;30.40;1.00
15003;DHT22;7597;53.590;10.020;2022-08-25T12:40:25;31.10;1.00
15003;DHT22;7597;53.590;10.020;2022-08-25T12:42:59;32.00;1.00
15003;DHT22;7597;53.590;10.020;2022-08-25T12:45:36;32.00;1.00
15003;DHT22;7597;53.590;10.020;2022-08-25T12:50:58;32.30;1.00
15003;DHT22;7597;53.590;10.020;2022-08-25T12:53:27;31.50;1.00
15003;DHT22;7597;53.590;10.020;2022-08-25T12:55:53;30.80;1.00
15003;DHT22;7597;53.590;10.020;2022-08-25T12:58:18;30.50;1.00
15003;DHT22;7597;53.590;10.020;2022-08-25T13:01:07;30.50;1.00
15003;DHT22;7597;53.590;10.020;2022-08-25T13:06:17;30.60;1.00
15003;DHT22;7597;53.590;10.020;2022-08-25T13:08:53;30.80;1.00
15003;DHT22;7597;53.590;10.020;2022-08-25T13:11:19;31.10;1.00
15003;DHT22;7597;53.590;10.020;2022-08-25T13:14:04;31.50;1.00
15003;DHT22;7597;53.590;10.020;2022-08-25T13:16:32;31.50;1.00
15003;DHT22;7597;53.590;10.020;2022-08-25T13:19:03;31.60;1.00
15003;DHT22;7597;53.590;10.020;2022-08-25T13:21:30;31.60;1.00
15003;DHT22;7597;53.590;10.020;2022-08-25T13:23:56;32.00;1.00
15003;DHT22;7597;53.590;10.020;2022-08-25T13:26:24;32.30;1.00
15003;DHT22;7597;53.590;10.020;2022-08-25T13:28:55;32.10;1.00
15003;DHT22;7597;53.590;10.020;2022-08-25T13:31:20;31.20;1.00
15003;DHT22;7597;53.590;10.020;2022-08-25T13:33:52;31.00;1.00
15003;DHT22;7597;53.590;10.020;2022-08-25T13:36:17;30.20;1.00
15003;DHT22;7597;53.590;10.020;2022-08-25T13:38:49;30.00;1.00
15003;DHT22;7597;53.590;10.020;2022-08-25T13:41:17;30.30;1.00
15003;DHT22;7597;53.590;10.020;2022-08-25T13:43:43;30.00;1.00
15003;DHT22;7597;53.590;10.020;2022-08-25T13:46:09;30.30;1.00
15003;DHT22;7597;53.590;10.020;2022-08-25T13:48:38;30.10;1.00
15003;DHT22;7597;53.590;10.020;2022-08-25T13:51:15;29.70;1.00
15003;DHT22;7597;53.590;10.020;2022-08-25T13:53:35;29.30;1.00
15003;DHT22;7597;53.590;10.020;2022-08-25T13:56:02;29.30;1.00
15003;DHT22;7597;53.590;10.020;2022-08-25T13:58:31;29.40;1.00
15003;DHT22;7597;53.590;10.020;2022-08-25T14:01:04;29.20;1.00
15003;DHT22;7597;53.590;10.020;2022-08-25T14:03:37;29.30;1.00
15003;DHT22;7597;53.590;10.020;2022-08-25T14:06:09;29.10;1.00
15003;DHT22;7597;53.590;10.020;2022-08-25T14:08:37;28.80;1.00
15003;DHT22;7597;53.590;10.020;2022-08-25T14:11:06;29.10;1.00
15003;DHT22;7597;53.590;10.020;2022-08-25T14:13:31;29.50;1.00
15003;DHT22;7597;53.590;10.020;2022-08-25T14:16:08;29.90;1.00
15003;DHT22;7597;53.590;10.020;2022-08-25T14:18:33;29.90;1.00
15003;DHT22;7597;53.590;10.020;2022-08-25T14:21:00;29.50;1.00
15003;DHT22;7597;53.590;10.020;2022-08-25T14:23:27;29.60;1.00
15003;DHT22;7597;53.590;10.020;2022-08-25T14:25:54;29.80;1.00
15003;DHT22;7597;53.590;10.020;2022-08-25T14:28:21;30.00;1.00
15003;DHT22;7597;53.590;10.020;2022-08-25T14:31:00;29.60;1.00
15003;DHT22;7597;53.590;10.020;2022-08-25T14:33:19;29.70;1.00
15003;DHT22;7597;53.590;10.020;2022-08-25T14:35:46;29.10;1.00
15003;DHT22;7597;53.590;10.020;2022-08-25T14:38:12;29.10;1.00
15003;DHT22;7597;53.590;10.020;2022-08-25T14:40:38;28.70;1.00
15003;DHT22;7597;53.590;10.020;2022-08-25T14:43:05;28.50;1.00
15003;DHT22;7597;53.590;10.020;2022-08-25T14:45:32;28.30;1.00
15003;DHT22;7597;53.590;10.020;2022-08-25T14:48:00;28.40;1.00
15003;DHT22;7597;53.590;10.020;2022-08-25T14:50:25;28.90;1.00
15003;DHT22;7597;53.590;10.020;2022-08-25T14:52:51;29.10;1.00
15003;DHT22;7597;53.590;10.020;2022-08-25T14:55:18;29.30;1.00
15003;DHT22;7597;53.590;10.020;2022-08-25T14:57:45;29.60;1.00
15003;DHT22;7597;53.590;10.020;2022-08-25T15:00:12;29.10;1.00
15003;DHT22;7597;53.590;10.020;2022-08-25T15:02:40;28.70;1.00
15003;DHT22;7597;53.590;10.020;2022-08-25T15:05:05;28.40;1.00
15003;DHT22;7597;53.590;10.020;2022-08-25T15:07:32;28.10;1.00
15003;DHT22;7597;53.590;10.020;2022-08-25T15:10:05;28.10;1.00
15003;DHT22;7597;53.590;10.020;2022-08-25T15:12:32;28.20;1.00
15003;DHT22;7597;53.590;10.020;2022-08-25T15:14:58;28.40;1.00
15003;DHT22;7597;53.590;10.020;2022-08-25T15:17:25;28.40;1.00
15003;DHT22;7597;53.590;10.020;2022-08-25T15:19:53;28.40;1.00
15003;DHT22;7597;53.590;10.020;2022-08-25T15:22:21;28.10;1.00
15003;DHT22;7597;53.590;10.020;2022-08-25T15:24:47;28.10;1.00
15003;DHT22;7597;53.590;10.020;2022-08-25T15:27:17;28.10;1.00
15003;DHT22;7597;53.590;10.020;2022-08-25T15:29:41;28.00;1.00
15003;DHT22;7597;53.590;10.020;2022-08-25T15:32:07;28.20;1.00
15003;DHT22;7597;53.590;10.020;2022-08-25T15:34:34;28.40;1.00
15003;DHT22;7597;53.590;10.020;2022-08-25T15:37:06;28.80;1.00
15003;DHT22;7597;53.590;10.020;2022-08-25T15:39:31;28.80;1.00
15003;DHT22;7597;53.590;10.020;2022-08-25T15:41:58;28.30;1.00
15003;DHT22;7597;53.590;10.020;2022-08-25T15:44:24;28.00;1.00
15003;DHT22;7597;53.590;10.020;2022-08-25T15:46:51;27.80;1.00
15003;DHT22;7597;53.590;10.020;2022-08-25T15:49:18;27.80;1.00
15003;DHT22;7597;53.590;10.020;2022-08-25T15:51:44;27.80;1.00
15003;DHT22;7597;53.590;10.020;2022-08-25T15:54:11;27.80;1.00
15003;DHT22;7597;53.590;10.020;2022-08-25T15:56:38;27.80;1.00
15003;DHT22;7597;53.590;10.020;2022-08-25T15:59:04;27.80;1.00
15003;DHT22;7597;53.590;10.020;2022-08-25T16:01:31;27.90;1.00
15003;DHT22;7597;53.590;10.020;2022-08-25T16:03:58;28.20;1.00
15003;DHT22;7597;53.590;10.020;2022-08-25T16:06:25;28.00;1.00
15003;DHT22;7597;53.590;10.020;2022-08-25T16:08:52;28.00;1.00
15003;DHT22;7597;53.590;10.020;2022-08-25T16:11:22;27.90;1.00
15003;DHT22;7597;53.590;10.020;2022-08-25T16:13:47;27.90;1.00
15003;DHT22;7597;53.590;10.020;2022-08-25T16:16:14;27.90;1.00
15003;DHT22;7597;53.590;10.020;2022-08-25T16:18:40;28.00;1.00
15003;DHT22;7597;53.590;10.020;2022-08-25T16:21:10;27.70;1.00
15003;DHT22;7597;53.590;10.020;2022-08-25T16:23:36;27.70;1.00
15003;DHT22;7597;53.590;10.020;2022-08-25T16:26:04;27.70;1.00
15003;DHT22;7597;53.590;10.020;2022-08-25T16:28:30;27.70;1.00
15003;DHT22;7597;53.590;10.020;2022-08-25T16:30:57;27.60;1.00
15003;DHT22;7597;53.590;10.020;2022-08-25T16:33:24;27.60;1.00